Miami, FL (33159)

2:23 PM EDT on July 25, 2016 (GMT -0400)
Little Havana-West Flagler Street in Miami Florida | | Change Station

Elev 13 ft 25.77 °N, 80.25 °W | Updated 22 seconds ago

Scattered Clouds
Scattered Clouds
93.7 °F
Feels Like 109 °F
N
5.6
Wind Variable Wind from ESE
Gusts 8.3 mph

Today
High -- | Low -- °F
--% Chance of Precip.
Yesterday
High -- | Low -- °F
Precip. -- in
Pressure 30.06 in
Visibility 10.0 miles
Clouds Scattered Clouds 3200 ft
Scattered Clouds 9000 ft
Scattered Clouds 25000 ft
Heat Index 109 °F
Dew Point 77 °F
Humidity 59%
Rainfall 0.00 in
Snow Depth Not available.
6:44 AM 8:10 PM
Waning Gibbous, 63% visible
METAR KMIA 251753Z 14012KT 10SM SCT032 SCT090 SCT250 32/23 A3006 RMK AO2 SLP179 CB DSNT NE-E T03220233 10322 20283 58008
Pressure 30.06 in
Visibility 10.0 miles
Clouds Scattered Clouds 3200 ft
Scattered Clouds 9000 ft
Scattered Clouds 25000 ft
Heat Index 109 °F
Dew Point 77 °F
Humidity 59%
Rainfall 0.00 in
Snow Depth Not available.
6:44 AM 8:10 PM
Waning Gibbous, 63% visible
METAR KMIA 251753Z 14012KT 10SM SCT032 SCT090 SCT250 32/23 A3006 RMK AO2 SLP179 CB DSNT NE-E T03220233 10322 20283 58008
Record highs are possible for parts of the Northeast Monday and Tuesday, as parts of the central U.S. take a little breather from the worst of summer's dog day heat.

Expansive high pressure in the upper atmosphere will focus on parts of the East and West this week, sending heat indices well into the triple digits from the Mid-Atlantic states into the South.

10-Day Weather Forecast

Almanac

Astronomy

Jul. 25, 2016 Rise Set
Actual Time
Civil Twilight
Nautical Twilight
Astronomical Twilight
Moon
Length of Visible Light
Length of Day
Tomorrow will be .
, % of the Moon is Illuminated

Today's Extremes

State Highs State Lows

Community

WunderPhotos

Upload Photos

1,927,365 photos uploaded!

WunderBlog® & News

Nearby

Air Quality

  Air Quality AQ Index Pollutant
Not available.

Snow Depth

Station Depth Elevation

Earthquake Activity

City Distance Mag. Time & Date
Minimum magnitude displayed is 2.5.

Coastal Water Temperatures

Place Temperature

Stations

Nearby Weather Stations

Station Location Temp. Windchill Dew Point Humidity Wind Precip. Elev Updated Type
                   

Watches & Warnings

There are currently no watches in effect.